Time;durP1;ratioP1;P1;durP2;ratioP2;P2;SDS_P1;SDS_P2;PMS_P1;PMS_P2;Temp;Humidity;BMP_temperature;BMP_pressure;BME280_temperature;BME280_humidity;BME280_pressure;Samples;Min_cycle;Max_cycle;Signal;HPM_P1;HPM_P2
2022/10/05 00:01:24;;;;;;;12.07;6.22;;;;;;;15.67;54.93;99993.91;5114483;28;20040;-61
2022/10/05 00:03:57;;;;;;;8.07;5.57;;;;;;;15.64;55.33;99994.13;5114111;28;20139;-61
2022/10/05 00:06:28;;;;;;;9.93;6.80;;;;;;;15.62;55.67;99986.28;5114088;28;20130;-61
2022/10/05 00:08:55;;;;;;;7.68;6.05;;;;;;;15.61;55.30;99986.38;5113611;28;20485;-61
2022/10/05 00:11:22;;;;;;;10.57;6.65;;;;;;;15.59;55.35;99989.16;5112882;28;20093;-62
2022/10/05 00:13:48;;;;;;;15.30;7.15;;;;;;;15.58;55.38;99987.47;5113777;28;20574;-61
2022/10/05 00:16:18;;;;;;;10.52;6.68;;;;;;;15.57;55.82;99992.88;5112621;28;20077;-64
2022/10/05 00:18:49;;;;;;;11.55;6.53;;;;;;;15.56;55.88;99985.88;5112367;28;20051;-61
2022/10/05 00:21:23;;;;;;;12.15;6.85;;;;;;;15.54;56.31;99990.44;5112448;28;20079;-61
2022/10/05 00:23:51;;;;;;;15.13;7.22;;;;;;;15.55;55.84;99987.69;5112616;28;20069;-61
2022/10/05 00:26:23;;;;;;;12.77;6.25;;;;;;;15.54;56.03;99985.13;5112386;28;20432;-62
2022/10/05 00:28:51;;;;;;;12.50;6.90;;;;;;;15.54;56.01;99986.00;5113498;28;20090;-62
2022/10/05 00:31:23;;;;;;;12.20;6.70;;;;;;;15.52;56.75;99984.41;5112291;28;20078;-63
2022/10/05 00:33:50;;;;;;;10.88;7.05;;;;;;;15.55;56.16;99992.16;5112173;28;20398;-62
2022/10/05 00:36:17;;;;;;;11.40;7.35;;;;;;;15.55;56.12;99987.69;5113388;28;20466;-62
2022/10/05 00:38:44;;;;;;;10.52;6.95;;;;;;;15.55;56.22;99984.19;5113386;28;20093;-62
2022/10/05 00:41:39;;;;;;;13.00;6.60;;;;;;;15.50;57.01;99974.78;5113399;28;20035;-61
2022/10/05 00:44:27;;;;;;;10.60;7.28;;;;;;;15.50;56.75;99973.91;5113320;28;20073;-62
2022/10/05 00:47:16;;;;;;;10.95;6.43;;;;;;;15.55;55.97;99970.94;5113667;27;20055;-63
2022/10/05 00:49:57;;;;;;;12.30;6.93;;;;;;;15.51;57.06;99978.25;5113104;28;20475;-61
2022/10/05 00:52:49;;;;;;;12.43;6.60;;;;;;;15.47;57.10;99976.78;5112749;28;20114;-62
2022/10/05 00:55:38;;;;;;;10.75;7.18;;;;;;;15.46;57.10;99962.69;5113261;28;20113;-61
2022/10/05 00:58:08;;;;;;;11.60;6.88;;;;;;;15.48;56.16;99966.06;5113124;28;20156;-61
2022/10/05 01:00:46;;;;;;;14.25;7.30;;;;;;;15.45;57.32;99961.03;5112969;28;20519;-62
2022/10/05 01:03:22;;;;;;;12.23;7.38;;;;;;;15.44;57.34;99954.00;5111726;28;20152;-61
2022/10/05 01:06:29;;;;;;;11.25;7.38;;;;;;;15.39;57.32;99950.84;5112819;28;20069;-62
2022/10/05 01:09:11;;;;;;;10.35;7.68;;;;;;;15.40;57.69;99943.75;5091027;28;20079;-60
2022/10/05 01:11:59;;;;;;;9.02;7.50;;;;;;;15.37;57.69;99944.81;5112663;28;20486;-62
2022/10/05 01:14:38;;;;;;;12.43;7.85;;;;;;;15.37;57.46;99950.97;5111559;28;20044;-60
2022/10/05 01:17:15;;;;;;;11.85;7.82;;;;;;;15.34;58.04;99950.34;5112699;28;20172;-63
2022/10/05 01:20:00;;;;;;;9.85;7.22;;;;;;;15.30;58.03;99940.94;5112395;28;20413;-62
2022/10/05 01:22:45;;;;;;;11.70;7.78;;;;;;;15.27;57.99;99941.16;5112488;28;20081;-61
2022/10/05 01:25:49;;;;;;;9.55;7.18;;;;;;;15.24;58.34;99937.78;5112590;28;20079;-61
2022/10/05 01:28:25;;;;;;;11.60;7.35;;;;;;;15.25;58.37;99938.59;5112278;28;20044;-61
2022/10/05 01:31:16;;;;;;;12.02;8.02;;;;;;;15.23;58.41;99946.69;5112415;28;20043;-61
2022/10/05 01:33:54;;;;;;;14.93;8.00;;;;;;;15.26;58.47;99952.72;5112470;28;20044;-61
2022/10/05 01:36:50;;;;;;;9.32;7.43;;;;;;;15.28;58.03;99940.22;5110937;28;20076;-65
2022/10/05 01:39:36;;;;;;;13.00;7.82;;;;;;;15.26;58.90;99937.66;5102438;28;20495;-60
2022/10/05 01:42:29;;;;;;;15.23;7.55;;;;;;;15.27;59.01;99939.34;5112277;28;20476;-62
2022/10/05 01:45:23;;;;;;;13.20;8.23;;;;;;;15.31;58.87;99942.59;5091998;28;20134;-61
2022/10/05 01:47:57;;;;;;;8.38;7.30;;;;;;;15.34;58.77;99930.00;5112177;28;20135;-62
2022/10/05 01:50:24;;;;;;;11.32;7.78;;;;;;;15.36;58.18;99930.72;5110422;28;20857;-61
2022/10/05 01:53:04;;;;;;;10.55;8.02;;;;;;;15.38;58.51;99925.28;5111944;28;20101;-61
2022/10/05 01:55:47;;;;;;;11.02;8.13;;;;;;;15.36;59.14;99925.41;5112449;28;20048;-61
2022/10/05 01:58:35;;;;;;;13.35;7.88;;;;;;;15.39;59.12;99932.28;5110627;28;20082;-62
2022/10/05 02:01:17;;;;;;;11.48;7.78;;;;;;;15.40;59.16;99915.41;5111823;28;20043;-62
2022/10/05 02:03:54;;;;;;;11.02;8.07;;;;;;;15.44;59.16;99927.47;5111200;28;20097;-63
2022/10/05 02:06:29;;;;;;;12.63;7.50;;;;;;;15.45;59.41;99926.53;5110258;28;20158;-62
2022/10/05 02:09:13;;;;;;;12.40;8.45;;;;;;;15.44;60.28;99924.00;5110347;28;20043;-63
2022/10/05 02:11:47;;;;;;;11.40;7.78;;;;;;;15.49;58.95;99917.38;5111443;28;20122;-63
2022/10/05 02:14:26;;;;;;;11.45;7.68;;;;;;;15.46;59.47;99928.22;5111783;28;20130;-64
2022/10/05 02:16:55;;;;;;;9.50;7.60;;;;;;;15.49;58.85;99920.03;5111665;28;20070;-62
2022/10/05 02:19:34;;;;;;;12.48;8.45;;;;;;;15.48;59.55;99925.44;5110163;28;20071;-64
2022/10/05 02:22:25;;;;;;;14.32;8.15;;;;;;;15.48;59.66;99912.19;5110325;28;20534;-62
2022/10/05 02:25:02;;;;;;;12.85;7.75;;;;;;;15.50;59.48;99920.88;5110144;28;20395;-62
2022/10/05 02:27:38;;;;;;;13.45;7.75;;;;;;;15.53;59.39;99909.16;5110383;28;20095;-62
2022/10/05 02:30:06;;;;;;;13.88;7.90;;;;;;;15.54;58.98;99905.53;5109983;28;20093;-62
2022/10/05 02:32:46;;;;;;;14.23;7.93;;;;;;;15.53;59.49;99904.72;5111313;28;20039;-63
2022/10/05 02:35:16;;;;;;;9.65;7.28;;;;;;;15.52;59.52;99897.72;5110190;28;20074;-63
2022/10/05 02:37:56;;;;;;;13.57;7.72;;;;;;;15.50;60.11;99900.50;5110069;28;20047;-63
2022/10/05 02:40:42;;;;;;;12.25;7.88;;;;;;;15.49;59.89;99888.19;5111077;28;20083;-62
2022/10/05 02:43:18;;;;;;;12.07;7.25;;;;;;;15.51;59.69;99885.41;5111118;28;20531;-62
2022/10/05 02:46:01;;;;;;;11.60;7.85;;;;;;;15.48;60.11;99873.22;5111216;28;20074;-63
2022/10/05 02:48:48;;;;;;;;;;;;;;;15.52;58.77;99870.34;5111438;28;20514;-61
2022/10/05 02:51:22;;;;;;;10.98;6.63;;;;;;;15.55;59.48;99862.16;5078536;28;19955;-64
2022/10/05 02:54:01;;;;;;;8.98;7.03;;;;;;;15.52;59.48;99862.38;5109864;28;20364;-61
2022/10/05 02:57:00;;;;;;;10.70;8.00;;;;;;;15.45;59.90;99854.91;5111228;28;20138;-61
2022/10/05 02:59:59;;;;;;;9.65;7.13;;;;;;;15.43;60.18;99855.97;5111258;28;20101;-62
2022/10/05 03:02:36;;;;;;;14.10;7.40;;;;;;;15.43;60.18;99853.31;5110871;28;20090;-61
2022/10/05 03:05:19;;;;;;;9.82;7.65;;;;;;;15.39;60.54;99855.34;5111009;28;20517;-63
2022/10/05 03:08:04;;;;;;;13.03;8.07;;;;;;;15.37;60.61;99863.44;5111068;28;20079;-63
2022/10/05 03:10:43;;;;;;;10.40;7.07;;;;;;;15.37;60.38;99849.34;5109711;28;20078;-61
2022/10/05 03:13:37;;;;;;;11.35;7.50;;;;;;;15.34;60.43;99842.47;5109778;28;20484;-62
2022/10/05 03:16:22;;;;;;;10.82;7.22;;;;;;;15.34;60.39;99842.47;5112429;28;20564;-62
2022/10/05 03:19:12;;;;;;;10.60;7.07;;;;;;;15.33;60.24;99835.44;5115055;28;20160;-63
2022/10/05 03:22:01;;;;;;;11.40;7.05;;;;;;;15.35;60.00;99832.69;5113547;28;20495;-64
2022/10/05 03:24:30;;;;;;;12.40;7.20;;;;;;;15.35;60.14;99822.06;5114879;28;20115;-61
2022/10/05 03:27:12;;;;;;;9.27;7.10;;;;;;;15.32;60.72;99815.19;5114731;28;20083;-62
2022/10/05 03:30:01;;;;;;;12.13;7.25;;;;;;;15.32;60.70;99817.00;5113385;28;20075;-62
2022/10/05 03:32:39;;;;;;;9.48;7.05;;;;;;;15.34;59.68;99815.09;5114558;28;20101;-61
2022/10/05 03:35:17;;;;;;;9.60;6.47;;;;;;;15.31;60.54;99817.97;5115102;28;20130;-64
2022/10/05 03:37:52;;;;;;;13.65;6.78;;;;;;;15.30;60.80;99803.88;5113220;28;20075;-61
2022/10/05 03:40:54;;;;;;;11.32;7.47;;;;;;;15.27;60.80;99797.94;5113292;28;20122;-61
2022/10/05 03:43:39;;;;;;;10.65;6.78;;;;;;;15.30;60.05;99803.88;5071086;28;20079;-61
2022/10/05 03:46:16;;;;;;;10.00;6.50;;;;;;;15.27;60.88;99801.44;5111260;28;20047;-62
2022/10/05 03:48:57;;;;;;;10.27;7.50;;;;;;;15.25;61.11;99816.63;5114757;28;20054;-61
2022/10/05 03:51:31;;;;;;;12.20;7.20;;;;;;;15.24;61.15;99817.59;5114257;28;20047;-61
2022/10/05 03:54:22;;;;;;;11.02;7.10;;;;;;;15.23;60.97;99823.84;5114313;28;20074;-61
2022/10/05 03:56:53;;;;;;;8.93;6.82;;;;;;;15.27;60.55;99824.47;5114448;28;20083;-61
2022/10/05 03:59:33;;;;;;;9.75;7.28;;;;;;;15.22;61.13;99825.66;5114321;28;20445;-61
2022/10/05 04:02:04;;;;;;;7.60;6.38;;;;;;;15.26;60.77;99825.44;5114147;28;20463;-61
2022/10/05 04:04:39;;;;;;;10.07;6.80;;;;;;;15.24;61.20;99828.19;5112843;28;20084;-61
2022/10/05 04:07:14;;;;;;;12.00;7.18;;;;;;;15.24;61.30;99831.69;5114029;28;20104;-61
2022/10/05 04:09:45;;;;;;;12.95;6.90;;;;;;;15.27;60.91;99840.38;5112513;28;20126;-62
2022/10/05 04:12:24;;;;;;;10.82;7.32;;;;;;;15.24;61.53;99837.00;5112725;28;20158;-62
2022/10/05 04:15:02;;;;;;;9.88;6.95;;;;;;;15.27;61.36;99829.75;5113907;28;20531;-61
2022/10/05 04:17:39;;;;;;;9.38;7.15;;;;;;;15.28;61.52;99828.81;5114002;28;20472;-61
2022/10/05 04:20:17;;;;;;;8.70;6.93;;;;;;;15.26;61.58;99828.94;5112276;28;20085;-60
2022/10/05 04:23:23;;;;;;;9.40;6.78;;;;;;;15.27;61.38;99840.38;5112459;28;20039;-62
2022/10/05 04:25:55;;;;;;;8.48;6.60;;;;;;;15.30;61.27;99829.53;5113733;28;20093;-62
2022/10/05 04:28:25;;;;;;;10.85;7.25;;;;;;;15.32;60.66;99827.59;5112480;28;20467;-60
2022/10/05 04:30:59;;;;;;;11.27;7.18;;;;;;;15.31;60.88;99832.09;5113552;28;20035;-62
2022/10/05 04:33:26;;;;;;;9.43;6.57;;;;;;;15.31;60.80;99831.22;5113845;28;20113;-61
2022/10/05 04:36:16;;;;;;;9.55;6.55;;;;;;;15.29;61.70;99827.84;5113636;28;20158;-61
2022/10/05 04:39:11;;;;;;;8.85;6.75;;;;;;;15.27;61.89;99835.91;5113557;28;20399;-63
2022/10/05 04:42:09;;;;;;;8.70;6.93;;;;;;;15.28;61.56;99824.34;5113422;28;20074;-61
2022/10/05 04:45:11;;;;;;;7.63;5.85;;;;;;;15.26;61.76;99833.38;5113760;28;20094;-62
2022/10/05 04:48:05;;;;;;;9.88;6.80;;;;;;;15.26;61.61;99817.47;5113267;28;20075;-61
2022/10/05 04:50:31;;;;;;;;;;;;;;;15.29;60.71;99811.94;5113477;28;20082;-62
2022/10/05 04:53:06;;;;;;;10.23;6.78;;;;;;;15.31;61.07;99810.00;5113279;28;20355;-62
2022/10/05 04:55:52;;;;;;;8.45;6.97;;;;;;;15.26;61.76;99809.50;5113334;28;20076;-63
2022/10/05 04:58:27;;;;;;;9.75;6.40;;;;;;;15.26;61.78;99809.50;5112936;28;20082;-60
2022/10/05 05:01:17;;;;;;;11.95;6.70;;;;;;;15.23;62.19;99803.50;5113089;28;20082;-61
2022/10/05 05:04:11;;;;;;;11.05;7.40;;;;;;;15.26;62.09;99805.06;5092044;28;20051;-61
2022/10/05 05:06:37;;;;;;;9.68;7.32;;;;;;;15.29;61.42;99788.06;5112780;28;20046;-62
2022/10/05 05:09:35;;;;;;;11.05;6.90;;;;;;;15.26;62.21;99798.91;5112572;28;20086;-61
2022/10/05 05:12:28;;;;;;;9.70;7.10;;;;;;;15.26;62.42;99785.66;5112759;28;20039;-63
2022/10/05 05:15:13;;;;;;;7.95;6.90;;;;;;;15.27;62.33;99797.94;5112776;28;20043;-61
2022/10/05 05:17:45;;;;;;;11.05;7.57;;;;;;;15.28;62.24;99799.66;5112694;28;20445;-63
2022/10/05 05:20:19;;;;;;;10.60;7.38;;;;;;;15.28;62.39;99800.47;5112373;28;20039;-63
2022/10/05 05:22:56;;;;;;;10.20;7.15;;;;;;;15.32;61.72;99795.78;5112784;28;20542;-61
2022/10/05 05:26:09;;;;;;;10.85;7.15;;;;;;;15.28;62.47;99797.00;5111169;28;20097;-61
2022/10/05 05:28:57;;;;;;;9.85;7.50;;;;;;;15.29;62.50;99796.03;5112420;28;20227;-60
2022/10/05 05:31:36;;;;;;;10.82;7.93;;;;;;;15.32;62.45;99806.38;5111202;28;20472;-61
2022/10/05 05:34:24;;;;;;;14.52;7.57;;;;;;;15.33;62.16;99795.66;5112270;28;20051;-61
2022/10/05 05:37:15;;;;;;;13.10;8.13;;;;;;;15.31;62.81;99794.94;5112652;28;20100;-62
2022/10/05 05:40:13;;;;;;;9.07;7.25;;;;;;;15.32;62.89;99790.47;5112032;28;20321;-61
2022/10/05 05:43:13;;;;;;;8.43;7.32;;;;;;;15.32;62.51;99798.44;5112338;28;20082;-64
2022/10/05 05:45:40;;;;;;;12.63;7.43;;;;;;;15.36;61.66;99795.44;5112296;28;20048;-61
2022/10/05 05:48:40;;;;;;;11.95;7.47;;;;;;;15.32;63.06;99795.78;5111883;28;20044;-62
2022/10/05 05:51:08;;;;;;;12.38;7.47;;;;;;;15.37;62.03;99788.34;5110914;28;20047;-62
2022/10/05 05:53:46;;;;;;;13.10;9.07;;;;;;;15.34;62.79;99792.06;5112271;28;20082;-61
2022/10/05 05:56:19;;;;;;;10.68;7.38;;;;;;;15.37;62.39;99789.16;5110094;28;20043;-61
2022/10/05 05:58:49;;;;;;;12.48;8.00;;;;;;;15.38;62.75;99790.03;5110316;28;20087;-61
2022/10/05 06:01:31;;;;;;;10.45;7.85;;;;;;;15.39;62.92;99790.88;5110356;28;20058;-61
2022/10/05 06:04:08;;;;;;;11.35;7.93;;;;;;;15.44;62.06;99801.97;5110523;28;20096;-61
2022/10/05 06:06:40;;;;;;;9.48;7.57;;;;;;;15.44;62.72;99789.53;5111457;28;20065;-60
2022/10/05 06:09:23;;;;;;;11.07;7.75;;;;;;;15.42;63.03;99787.97;5111342;28;20135;-60
2022/10/05 06:12:00;;;;;;;;;;;;;;;15.46;62.38;99792.06;5110887;28;20090;-63
2022/10/05 06:14:58;;;;;;;9.25;7.40;;;;;;;15.45;62.86;99788.59;5111306;28;20026;-60
2022/10/05 06:17:34;;;;;;;11.32;7.93;;;;;;;15.48;62.62;99792.81;5088937;28;20047;-62
2022/10/05 06:20:08;;;;;;;9.68;7.43;;;;;;;15.47;62.35;99794.63;5109920;28;20559;-61
2022/10/05 06:22:37;;;;;;;10.32;7.50;;;;;;;15.48;62.81;99788.34;5111517;28;20082;-61
2022/10/05 06:25:07;;;;;;;10.32;7.85;;;;;;;15.48;63.11;99790.16;5111097;28;20564;-64
2022/10/05 06:27:51;;;;;;;12.13;8.20;;;;;;;15.52;62.72;99793.41;5111301;28;20089;-64
2022/10/05 06:30:18;;;;;;;10.55;7.82;;;;;;;15.55;62.62;99795.84;5110862;28;20049;-60
2022/10/05 06:32:48;;;;;;;13.80;7.47;;;;;;;15.57;63.30;99791.25;5111157;28;20461;-61
2022/10/05 06:35:33;;;;;;;8.57;7.38;;;;;;;15.61;62.98;99782.09;5110688;28;20059;-62
2022/10/05 06:38:05;;;;;;;10.55;8.18;;;;;;;15.62;63.62;99792.56;5110939;28;20075;-64
2022/10/05 06:40:42;;;;;;;10.02;7.97;;;;;;;15.66;63.59;99787.88;5110401;28;20086;-63
2022/10/05 06:43:23;;;;;;;12.82;8.10;;;;;;;15.73;62.98;99796.19;5110603;28;20472;-61
2022/10/05 06:45:58;;;;;;;12.52;7.00;;;;;;;15.77;63.08;99790.53;5110684;28;20087;-61
2022/10/05 06:48:46;;;;;;;10.90;6.72;;;;;;;15.79;63.56;99781.59;5110877;28;20048;-62
2022/10/05 06:51:22;;;;;;;8.65;6.78;;;;;;;15.86;63.75;99786.28;5110347;28;20094;-61
2022/10/05 06:54:07;;;;;;;8.63;6.85;;;;;;;15.93;62.95;99778.72;5110913;28;20096;-63
2022/10/05 06:56:58;;;;;;;10.60;7.78;;;;;;;15.98;63.26;99784.53;5110912;28;20091;-63
2022/10/05 06:59:24;;;;;;;10.45;6.63;;;;;;;16.04;62.98;99783.22;5109067;28;20052;-61
2022/10/05 07:01:57;;;;;;;9.05;6.95;;;;;;;16.07;63.04;99793.56;5110791;28;20138;-62
2022/10/05 07:04:53;;;;;;;10.70;6.93;;;;;;;16.10;63.34;99795.97;5109639;28;20419;-62
2022/10/05 07:07:34;;;;;;;10.15;7.43;;;;;;;16.17;63.22;99800.78;5110916;28;20126;-62
2022/10/05 07:10:07;;;;;;;11.40;6.70;;;;;;;16.23;62.94;99795.81;5109344;28;20441;-62
2022/10/05 07:12:44;;;;;;;10.38;6.55;;;;;;;16.28;62.75;99795.47;5109640;28;20079;-62
2022/10/05 07:15:19;;;;;;;9.50;6.72;;;;;;;16.31;62.91;99803.19;5110950;28;20072;-63
2022/10/05 07:18:01;;;;;;;7.78;6.57;;;;;;;16.37;62.59;99802.69;5111117;28;20044;-61
2022/10/05 07:20:30;;;;;;;10.23;6.32;;;;;;;16.42;62.29;99800.50;5109191;28;20131;-62
2022/10/05 07:23:19;;;;;;;13.35;6.57;;;;;;;16.45;62.55;99809.22;5109488;28;20055;-62
2022/10/05 07:26:04;;;;;;;11.15;6.95;;;;;;;16.47;62.49;99808.09;5110707;28;20104;-62
2022/10/05 07:28:47;;;;;;;8.80;6.47;;;;;;;16.49;62.38;99805.34;5110396;28;20101;-62
2022/10/05 07:31:27;;;;;;;11.50;7.57;;;;;;;16.53;61.74;99809.44;5110993;28;20100;-61
2022/10/05 07:34:14;;;;;;;7.85;6.53;;;;;;;16.53;62.64;99810.25;5110928;28;20054;-62
2022/10/05 07:39:40;;;;;;;8.52;6.25;;;;;;;16.60;62.03;99805.28;5110559;28;20079;-61
2022/10/05 07:43:05;;;;;;;8.85;6.18;;;;;;;16.58;62.06;99804.56;5109439;28;20055;-62
2022/10/05 07:45:44;;;;;;;8.43;6.13;;;;;;;16.61;61.72;99814.97;5109444;28;20077;-62
2022/10/05 07:48:14;;;;;;;9.27;6.55;;;;;;;16.63;61.87;99814.84;5110476;28;20056;-61
2022/10/05 07:50:58;;;;;;;8.88;5.93;;;;;;;16.62;61.99;99813.13;5110356;28;20143;-61
2022/10/05 07:53:30;;;;;;;7.72;5.85;;;;;;;16.65;62.06;99816.41;5110444;28;20135;-61
2022/10/05 07:56:03;;;;;;;12.52;6.30;;;;;;;16.67;61.96;99824.22;5110867;28;20047;-62
2022/10/05 07:58:46;;;;;;;7.88;6.18;;;;;;;16.67;61.91;99814.44;5110316;28;20091;-61
2022/10/05 08:01:21;;;;;;;5.93;5.38;;;;;;;16.72;61.75;99821.19;5110376;28;20499;-65
2022/10/05 08:04:08;;;;;;;8.60;5.22;;;;;;;16.73;61.75;99831.72;5111450;28;20388;-62
2022/10/05 08:06:59;;;;;;;7.28;5.43;;;;;;;16.72;61.63;99832.69;5106467;28;20055;-62
2022/10/05 08:09:32;;;;;;;9.13;5.88;;;;;;;16.76;61.58;99826.16;5113757;28;20130;-61
2022/10/05 08:12:20;;;;;;;8.00;5.90;;;;;;;16.77;61.62;99825.19;5113780;27;20514;-61
2022/10/05 08:15:13;;;;;;;7.90;5.30;;;;;;;16.74;61.52;99827.25;5114038;28;20054;-61
2022/10/05 08:18:04;;;;;;;7.20;5.35;;;;;;;16.74;61.60;99829.91;5113843;28;20121;-63
2022/10/05 08:20:47;;;;;;;6.15;5.00;;;;;;;16.79;61.33;99838.34;5114026;28;20048;-61
2022/10/05 08:23:16;;;;;;;5.82;5.05;;;;;;;16.77;61.22;99832.28;5113944;28;20138;-60
2022/10/05 08:25:52;;;;;;;6.25;4.93;;;;;;;16.79;61.45;99828.53;5113401;28;20079;-64
2022/10/05 08:28:27;;;;;;;7.47;4.95;;;;;;;16.79;61.55;99830.38;5113595;27;20047;-61
2022/10/05 08:31:00;;;;;;;5.68;4.65;;;;;;;16.82;61.44;99826.63;5112087;28;20529;-62
2022/10/05 08:33:34;;;;;;;5.88;4.55;;;;;;;16.82;61.42;99824.78;5112292;28;20066;-60
2022/10/05 08:36:13;;;;;;;8.95;4.90;;;;;;;16.83;61.29;99831.81;5113499;28;20055;-62
2022/10/05 08:38:41;;;;;;;5.85;4.07;;;;;;;16.89;61.13;99825.13;5112041;28;20086;-61
2022/10/05 08:41:11;;;;;;;5.28;4.32;;;;;;;16.89;61.08;99818.00;5111968;28;20087;-61
2022/10/05 08:43:56;;;;;;;6.63;4.15;;;;;;;16.93;60.98;99811.44;5113181;28;20043;-61
2022/10/05 08:46:38;;;;;;;5.07;3.95;;;;;;;16.95;61.03;99811.34;5113128;28;20466;-61
2022/10/05 08:49:29;;;;;;;5.60;3.92;;;;;;;17.01;61.20;99813.47;5113158;27;20047;-63
2022/10/05 08:52:27;;;;;;;4.07;3.67;;;;;;;17.06;61.05;99807.81;5113178;28;20044;-64
2022/10/05 08:55:09;;;;;;;7.38;4.25;;;;;;;17.14;61.06;99804.50;5113309;28;20071;-60
2022/10/05 08:57:58;;;;;;;5.00;3.70;;;;;;;17.23;60.56;99805.56;5113024;28;20491;-60
2022/10/05 09:00:49;;;;;;;5.00;3.80;;;;;;;17.30;60.37;99793.41;5112725;28;20104;-63
2022/10/05 09:03:34;;;;;;;4.55;3.72;;;;;;;17.37;60.37;99793.72;5112866;28;20052;-61
2022/10/05 09:06:13;;;;;;;3.92;3.40;;;;;;;17.47;59.98;99799.09;5112835;28;20060;-62
2022/10/05 09:09:18;;;;;;;8.30;4.00;;;;;;;17.52;59.84;99791.56;5112724;28;20051;-60
2022/10/05 09:11:51;;;;;;;4.38;3.38;;;;;;;17.63;60.04;99791.50;5112463;28;20082;-61
2022/10/05 09:14:27;;;;;;;3.38;3.08;;;;;;;17.72;60.21;99787.19;5112090;28;20135;-61
2022/10/05 09:17:40;;;;;;;5.55;3.75;;;;;;;17.76;59.63;99788.59;5112493;28;20087;-63
2022/10/05 09:20:13;;;;;;;5.30;3.53;;;;;;;17.89;59.27;99793.69;5096008;28;20142;-61
2022/10/05 09:22:43;;;;;;;3.80;3.42;;;;;;;17.98;59.55;99792.03;5111206;28;20092;-61
2022/10/05 09:25:15;;;;;;;6.97;4.00;;;;;;;18.03;58.91;99788.97;5112368;28;20047;-61
2022/10/05 09:27:56;;;;;;;5.87;3.77;;;;;;;18.07;58.86;99780.59;5112461;28;20488;-61
2022/10/05 09:30:50;;;;;;;6.18;3.42;;;;;;;18.14;58.79;99796.06;5112241;28;20514;-60
2022/10/05 09:33:34;;;;;;;4.10;3.53;;;;;;;18.17;58.59;99790.47;5112285;28;20075;-61
2022/10/05 09:36:18;;;;;;;7.05;3.88;;;;;;;18.20;57.72;99787.50;5112286;28;20082;-61
2022/10/05 09:38:57;;;;;;;7.88;3.80;;;;;;;18.22;58.51;99804.22;5111006;28;20099;-62
2022/10/05 09:41:41;;;;;;;6.45;3.63;;;;;;;18.27;58.42;99785.16;5112106;28;20048;-63
2022/10/05 09:44:42;;;;;;;5.57;3.72;;;;;;;18.30;58.67;99784.88;5110870;28;20073;-62
2022/10/05 09:47:27;;;;;;;6.15;3.70;;;;;;;18.39;58.48;99783.22;5112194;28;20113;-62
2022/10/05 09:50:31;;;;;;;3.83;3.20;;;;;;;18.39;58.25;99783.22;5111825;28;20108;-64
2022/10/05 09:53:07;;;;;;;7.05;3.67;;;;;;;18.45;58.16;99783.50;5111879;28;20083;-63
2022/10/05 09:55:55;;;;;;;4.35;2.90;;;;;;;18.51;58.48;99776.78;5110552;28;20552;-62
2022/10/05 09:58:49;;;;;;;7.65;3.78;;;;;;;18.55;58.39;99766.69;5111672;28;20083;-62
2022/10/05 10:01:15;;;;;;;;;;;;;;;18.64;58.07;99765.00;5112618;28;20048;-61
2022/10/05 10:04:06;;;;;;;4.20;3.10;;;;;;;18.77;58.07;99764.72;5111830;28;19930;-61
2022/10/05 10:07:12;;;;;;;3.97;2.83;;;;;;;18.77;57.86;99762.91;5111833;28;20524;-61
2022/10/05 10:09:50;;;;;;;4.63;3.20;;;;;;;18.86;57.98;99769.19;5111517;28;20075;-62
2022/10/05 10:12:29;;;;;;;4.82;3.22;;;;;;;18.84;57.06;99758.66;5111713;28;20112;-61
2022/10/05 10:15:14;;;;;;;6.35;3.22;;;;;;;18.87;57.48;99771.72;5111671;28;20090;-63
2022/10/05 10:18:28;;;;;;;6.13;3.55;;;;;;;18.92;57.47;99754.47;5110429;28;20048;-60
2022/10/05 10:21:06;;;;;;;4.55;2.85;;;;;;;18.99;57.37;99758.25;5082948;28;20128;-61
2022/10/05 10:23:41;;;;;;;5.28;2.97;;;;;;;19.05;58.03;99747.03;5111583;28;20083;-62
2022/10/05 10:26:24;;;;;;;3.55;2.88;;;;;;;19.08;57.33;99746.75;5110776;28;20150;-61
2022/10/05 10:29:09;;;;;;;4.25;3.00;;;;;;;19.14;57.49;99751.50;5111239;28;20075;-61
2022/10/05 10:32:19;;;;;;;3.47;2.92;;;;;;;19.17;57.01;99750.38;5111383;28;20082;-61
2022/10/05 10:35:10;;;;;;;5.25;3.10;;;;;;;19.22;56.33;99739.28;5111374;28;20108;-62
2022/10/05 10:37:57;;;;;;;6.28;3.10;;;;;;;19.26;56.25;99743.34;5111179;28;20146;-61
2022/10/05 10:40:37;;;;;;;6.30;3.13;;;;;;;19.32;56.44;99725.91;5110867;28;20069;-61
2022/10/05 10:43:29;;;;;;;5.30;2.92;;;;;;;19.35;56.19;99734.47;5111312;28;20052;-60
2022/10/05 10:46:15;;;;;;;4.43;3.00;;;;;;;19.38;56.17;99726.16;5108336;28;20089;-61
2022/10/05 10:48:56;;;;;;;4.00;2.75;;;;;;;19.50;56.36;99721.47;5110787;28;20388;-61
2022/10/05 10:51:44;;;;;;;5.88;2.72;;;;;;;19.56;56.41;99730.75;5109703;28;20051;-61
2022/10/05 10:54:35;;;;;;;5.00;2.75;;;;;;;19.62;56.22;99722.13;5109748;28;20087;-61
2022/10/05 10:57:07;;;;;;;5.57;2.80;;;;;;;19.74;55.92;99719.28;5110780;28;20043;-62
2022/10/05 11:00:14;;;;;;;5.38;3.00;;;;;;;19.78;55.59;99709.97;5109842;28;20051;-61
2022/10/05 11:03:03;;;;;;;5.47;2.58;;;;;;;19.87;55.06;99708.22;5110917;28;20048;-61
2022/10/05 11:05:33;;;;;;;5.55;2.65;;;;;;;19.99;55.94;99708.88;5111164;28;20074;-61
2022/10/05 11:08:33;;;;;;;3.15;2.50;;;;;;;20.03;55.07;99712.94;5109683;28;20051;-62
2022/10/05 11:11:32;;;;;;;4.85;2.70;;;;;;;20.12;54.03;99719.22;5111172;28;20399;-62
2022/10/05 11:14:20;;;;;;;3.00;2.50;;;;;;;20.27;55.28;99708.84;5111286;28;20131;-61
2022/10/05 11:17:19;;;;;;;2.83;2.40;;;;;;;20.44;55.39;99696.47;5110944;28;20139;-61
2022/10/05 11:20:03;;;;;;;3.42;2.65;;;;;;;20.73;56.67;99691.84;5108430;28;20048;-62
2022/10/05 11:22:44;;;;;;;3.60;2.20;;;;;;;21.08;54.46;99695.47;5109462;28;20059;-62
2022/10/05 11:25:23;;;;;;;2.95;2.13;;;;;;;21.52;54.39;99689.19;5110826;28;20069;-62
2022/10/05 11:28:05;;;;;;;6.00;2.50;;;;;;;21.96;54.07;99682.81;5110709;28;20060;-62
2022/10/05 11:30:55;;;;;;;2.97;2.22;;;;;;;22.32;52.23;99670.97;5110771;28;20060;-61
2022/10/05 11:34:09;;;;;;;3.38;2.55;;;;;;;22.63;51.16;99669.50;5110684;28;20408;-62
2022/10/05 11:37:08;;;;;;;3.95;2.22;;;;;;;22.88;51.51;99672.97;5111260;28;20082;-61
2022/10/05 11:39:50;;;;;;;3.50;2.10;;;;;;;23.10;50.12;99667.91;5090976;28;20043;-62
2022/10/05 11:42:51;;;;;;;3.03;2.25;;;;;;;23.25;50.31;99651.91;5114625;28;20142;-61
2022/10/05 11:45:22;;;;;;;5.10;2.50;;;;;;;23.43;49.66;99661.59;5093347;28;20040;-61
2022/10/05 11:48:07;;;;;;;8.63;2.30;;;;;;;23.48;48.86;99643.16;5114239;28;20546;-61
2022/10/05 11:51:07;;;;;;;2.90;2.13;;;;;;;23.47;48.64;99649.50;5114149;28;20079;-61
2022/10/05 11:53:42;;;;;;;5.28;2.17;;;;;;;23.53;48.47;99645.28;5113017;28;20043;-61
2022/10/05 11:56:37;;;;;;;2.70;2.20;;;;;;;23.52;49.22;99636.38;5114051;28;20039;-61
2022/10/05 11:59:13;;;;;;;2.92;1.85;;;;;;;23.58;48.48;99642.91;5111648;28;20553;-62
2022/10/05 12:01:43;;;;;;;4.32;2.38;;;;;;;23.68;49.91;99629.25;5112102;28;20193;-62
2022/10/05 12:04:26;;;;;;;6.45;2.40;;;;;;;23.72;48.59;99630.56;5114006;28;20487;-61
2022/10/05 12:07:08;;;;;;;2.60;2.00;;;;;;;23.81;46.56;99626.81;5112878;28;20173;-63
2022/10/05 12:12:52;;;;;;;4.47;2.40;;;;;;;24.04;47.55;99615.22;5113961;28;20056;-62
2022/10/05 12:16:04;;;;;;;2.83;2.40;;;;;;;24.24;46.55;99608.56;5112594;28;20079;-61
2022/10/05 12:18:31;;;;;;;2.22;1.85;;;;;;;24.48;48.39;99607.50;5069495;28;20083;-61
2022/10/05 12:21:04;;;;;;;2.55;1.65;;;;;;;24.54;46.24;99604.09;5052731;28;20048;-61
2022/10/05 12:23:39;;;;;;;2.85;1.98;;;;;;;24.55;46.00;99605.75;5084685;28;20079;-61
2022/10/05 12:26:30;;;;;;;2.60;2.00;;;;;;;24.52;45.83;99598.06;5113343;28;20075;-62
2022/10/05 12:29:22;;;;;;;2.60;2.00;;;;;;;24.49;44.55;99593.06;5111031;28;20168;-64
2022/10/05 12:31:49;;;;;;;4.35;2.15;;;;;;;24.54;46.84;99595.19;5112341;28;20092;-62
2022/10/05 12:34:33;;;;;;;2.25;1.63;;;;;;;24.60;45.14;99591.78;5112527;28;20054;-63
2022/10/05 12:37:15;;;;;;;2.92;2.05;;;;;;;24.82;46.05;99589.19;5111617;28;20120;-62
2022/10/05 12:40:05;;;;;;;3.17;2.08;;;;;;;24.95;43.94;99592.09;5110174;28;20406;-61
2022/10/05 12:42:45;;;;;;;5.78;2.50;;;;;;;25.02;43.57;99589.50;5110572;28;20454;-62
2022/10/05 12:45:26;;;;;;;1.92;1.60;;;;;;;25.12;45.41;99589.22;5111442;28;20078;-63
2022/10/05 12:48:15;;;;;;;2.25;1.90;;;;;;;25.09;45.45;99590.41;5111120;28;20060;-61